This is the latest recevied weather packets stored in our database for station/object K7FRY. If no packets are shown the sender has not sent any weather packets the latest 1 day(s).
| Time | Temp. | Humidity | Pressure | Rain* | Wind** | Luminosity | Snow |
|---|---|---|---|---|---|---|---|
| 1836274622 | 26.67° C | 61% | 1016.2 hPa | 0 mm | 2.68 m/s, 172° | 0 W/m² | - |
| 1836274476 | 27.78° C | 57% | 1016.3 hPa | 0 mm | 3.13 m/s, 181° | 0 W/m² | - |
| 1836274320 | 26.11° C | 68% | 1015.9 hPa | 0 mm | 0.45 m/s, 178° | 0 W/m² | - |
| 1836274174 | 27.78° C | 57% | 1016 hPa | 0 mm | 2.24 m/s, 184° | 0 W/m² | - |
| 1836274019 | 26.67° C | 65% | 1015.8 hPa | 0 mm | 0 m/s | 0 W/m² | - |
| 1778049260 | 16.67° C | 48% | 1015.5 hPa | 0 mm | 1.79 m/s, 233° | 0 W/m² | - |
| 1778048958 | 16.67° C | 48% | 1015.5 hPa | 0 mm | 1.34 m/s, 285° | 0 W/m² | - |
| 1778048656 | 16.67° C | 47% | 1015.6 hPa | 0 mm | 2.24 m/s, 270° | 0 W/m² | - |
| 1778048352 | 16.67° C | 48% | 1015.8 hPa | 0 mm | 1.34 m/s, 288° | 0 W/m² | - |
| 1778048049 | 16.67° C | 48% | 1015.5 hPa | 0 mm | 1.79 m/s, 274° | 0 W/m² | - |
| 1778047747 | 16.67° C | 48% | 1015.8 hPa | 0 mm | 2.24 m/s, 237° | 0 W/m² | - |
| 1778047444 | 16.67° C | 48% | 1015.4 hPa | 0 mm | 0.89 m/s, 261° | 0 W/m² | - |
| 1778047141 | 16.67° C | 48% | 1015.6 hPa | 0 mm | 1.34 m/s, 256° | 0 W/m² | - |
| 1778046838 | 16.67° C | 48% | 1015.6 hPa | 0 mm | 0.45 m/s, 245° | 0 W/m² | - |
| 1778046535 | 16.67° C | 47% | 1015.5 hPa | 0 mm | 1.34 m/s, 262° | 0 W/m² | - |
| 1778046232 | 16.67° C | 46% | 1015.4 hPa | 0 mm | 0.89 m/s, 258° | 0 W/m² | - |
| 1778045928 | 16.67° C | 47% | 1015.4 hPa | 0 mm | 0.89 m/s, 248° | 0 W/m² | - |
| 1778045626 | 16.67° C | 48% | 1015.4 hPa | 0 mm | 0.45 m/s, 222° | 0 W/m² | - |
| 1778045324 | 16.67° C | 48% | 1015.2 hPa | 0 mm | 0.45 m/s, 226° | 0 W/m² | - |
| 1778045023 | 16.67° C | 47% | 1015.4 hPa | 0 mm | 0.45 m/s, 228° | 0 W/m² | - |
| 1778044720 | 17.22° C | 47% | 1015.2 hPa | 0 mm | 0.89 m/s, 270° | 0 W/m² | - |
| 1778044416 | 17.22° C | 47% | 1015.3 hPa | 0 mm | 1.34 m/s, 256° | 0 W/m² | - |
| 1778044114 | 17.22° C | 47% | 1015 hPa | 0 mm | 1.34 m/s, 253° | 0 W/m² | - |
| 1778043811 | 16.67° C | 46% | 1015.2 hPa | 0 mm | 1.34 m/s, 240° | 0 W/m² | - |
| 1778043508 | 16.67° C | 47% | 1015.2 hPa | 0 mm | 1.34 m/s, 240° | 0 W/m² | - |
* Rain latest hour (hover to see other rain measurements)
** Current wind speed in m/s (hover to see current wind gust speed)